createdAt,value
2019-05-18T00:00:17.063Z,83.53
2019-05-18T00:01:17.049Z,83.62
2019-05-18T00:02:17.095Z,83.62
2019-05-18T00:03:17.073Z,83.62
2019-05-18T00:04:17.018Z,83.87
2019-05-18T00:05:17.006Z,83.83
2019-05-18T00:06:16.998Z,84.13
2019-05-18T00:07:16.984Z,84.34
2019-05-18T00:08:16.976Z,84.34
2019-05-18T00:09:16.998Z,84.84
2019-05-18T00:10:16.955Z,84.68
2019-05-18T00:11:16.940Z,84.74
2019-05-18T00:12:16.931Z,84.74
2019-05-18T00:13:16.920Z,84.34
2019-05-18T00:14:16.908Z,84.84
2019-05-18T00:15:16.934Z,84.64
2019-05-18T00:16:16.886Z,84.78
2019-05-18T00:17:24.914Z,84.88
2019-05-18T00:18:17.863Z,84.68
2019-05-18T00:19:16.853Z,84.68
2019-05-18T00:20:16.846Z,84.99
2019-05-18T00:21:16.868Z,84.99
2019-05-18T00:22:16.822Z,85.49
2019-05-18T00:23:16.809Z,85.60
2019-05-18T00:24:16.798Z,85.60
2019-05-18T00:25:16.787Z,85.19
2019-05-18T00:26:16.778Z,85.70
2019-05-18T00:27:16.801Z,85.39
2019-05-18T00:28:16.788Z,85.70
2019-05-18T00:29:16.751Z,85.19
2019-05-18T00:30:16.732Z,85.29
2019-05-18T00:31:16.733Z,85.49
2019-05-18T00:32:16.711Z,85.74
2019-05-18T00:33:16.725Z,85.64
2019-05-18T00:34:16.691Z,86.00
2019-05-18T00:35:16.870Z,86.00
2019-05-18T00:36:16.667Z,85.84
2019-05-18T00:37:16.657Z,86.04
2019-05-18T00:38:16.680Z,85.84
2019-05-18T00:39:16.635Z,85.84
2019-05-18T00:40:16.624Z,85.84
2019-05-18T00:41:16.612Z,86.04
2019-05-18T00:42:16.603Z,85.94
2019-05-18T00:43:16.588Z,85.84
2019-05-18T00:44:16.616Z,86.04
2019-05-18T00:45:16.572Z,85.84
2019-05-18T00:46:16.557Z,86.04
2019-05-18T00:47:16.545Z,85.94
2019-05-18T00:48:16.535Z,86.15
2019-05-18T00:49:16.524Z,86.15
2019-05-18T00:50:16.540Z,86.35
2019-05-18T00:51:16.502Z,86.55
2019-05-18T00:52:16.489Z,86.45
2019-05-18T00:53:16.477Z,86.65
2019-05-18T00:54:16.472Z,86.65
2019-05-18T00:55:16.481Z,86.59
2019-05-18T00:56:16.444Z,86.49
2019-05-18T00:57:16.434Z,86.86
2019-05-18T00:58:16.425Z,86.90
2019-05-18T00:59:16.450Z,87.20
2019-05-18T01:00:16.437Z,87.30
2019-05-18T01:01:16.390Z,87.30
2019-05-18T01:02:16.379Z,87.41
2019-05-18T01:03:16.370Z,87.20
2019-05-18T01:04:16.356Z,87.30
2019-05-18T01:05:16.418Z,87.10
2019-05-18T01:06:16.333Z,87.16
2019-05-18T01:07:16.320Z,87.20
2019-05-18T01:08:16.310Z,87.41
2019-05-18T01:09:16.300Z,87.20
2019-05-18T01:10:16.316Z,87.20
2019-05-18T01:11:16.276Z,87.20
2019-05-18T01:12:16.265Z,86.90
2019-05-18T01:13:16.255Z,86.94
2019-05-18T01:14:16.246Z,87.00
2019-05-18T01:15:16.258Z,87.55
2019-05-18T01:16:16.220Z,87.65
2019-05-18T01:17:16.210Z,87.85
2019-05-18T01:18:16.203Z,87.75
2019-05-18T01:19:16.192Z,87.51
2019-05-18T01:20:16.202Z,87.61
2019-05-18T01:21:16.165Z,87.75
2019-05-18T01:22:16.155Z,87.35
2019-05-18T01:23:16.143Z,87.10
2019-05-18T01:24:16.137Z,87.10
2019-05-18T01:25:16.146Z,87.24
2019-05-18T01:26:16.111Z,87.14
2019-05-18T01:27:16.101Z,87.14
2019-05-18T01:28:16.090Z,87.04
2019-05-18T01:29:16.075Z,87.14
2019-05-18T01:30:16.090Z,87.04
2019-05-18T01:31:16.056Z,87.65
2019-05-18T01:32:16.043Z,87.96
2019-05-18T01:33:16.034Z,87.96
2019-05-18T01:34:16.020Z,87.65
2019-05-18T01:35:16.034Z,88.00
2019-05-18T01:36:16.001Z,88.00
2019-05-18T01:37:15.987Z,88.00
2019-05-18T01:38:15.977Z,88.51
2019-05-18T01:39:15.970Z,88.81
2019-05-18T01:40:15.983Z,89.01
2019-05-18T01:41:15.958Z,88.61
2019-05-18T01:42:15.933Z,89.47
2019-05-18T01:43:15.919Z,89.36
2019-05-18T01:44:15.908Z,89.06
2019-05-18T01:45:17.476Z,90.18
2019-05-18T01:46:15.885Z,90.28
2019-05-18T01:47:15.876Z,89.87
2019-05-18T01:48:15.866Z,90.18
2019-05-18T01:49:15.851Z,89.87
2019-05-18T01:50:15.865Z,89.97
2019-05-18T01:51:15.830Z,89.97
2019-05-18T01:52:15.821Z,89.97
2019-05-18T01:53:15.810Z,90.38
2019-05-18T01:54:15.801Z,89.67
2019-05-18T01:55:15.811Z,90.18
2019-05-18T01:56:15.777Z,89.87
2019-05-18T01:57:15.766Z,90.63
2019-05-18T01:58:15.756Z,90.22
2019-05-18T01:59:15.748Z,90.12
2019-05-18T02:00:15.759Z,90.63
2019-05-18T02:01:15.723Z,90.83
2019-05-18T02:02:15.711Z,90.94
2019-05-18T02:03:15.701Z,91.03
2019-05-18T02:04:15.691Z,90.53
2019-05-18T02:05:15.703Z,90.53
2019-05-18T02:06:15.670Z,91.14
2019-05-18T02:07:15.659Z,91.65
2019-05-18T02:08:15.650Z,91.75
2019-05-18T02:09:15.636Z,91.75
2019-05-18T02:10:15.654Z,91.75
2019-05-18T02:11:15.615Z,91.65
2019-05-18T02:12:15.604Z,91.44
2019-05-18T02:13:15.593Z,91.35
2019-05-18T02:14:15.584Z,91.44
2019-05-18T02:15:15.598Z,91.35
2019-05-18T02:16:15.561Z,91.24
2019-05-18T02:17:15.551Z,91.24
2019-05-18T02:18:28.219Z,91.24
2019-05-18T02:19:16.528Z,91.65
2019-05-18T02:20:15.554Z,92.05
2019-05-18T02:21:15.508Z,91.49
2019-05-18T02:22:15.499Z,92.00
2019-05-18T02:23:15.487Z,92.00
2019-05-18T02:24:15.476Z,91.96
2019-05-18T02:25:15.488Z,91.96
2019-05-18T02:26:15.454Z,92.00
2019-05-18T02:27:15.442Z,91.89
2019-05-18T02:28:15.431Z,92.00
2019-05-18T02:29:15.422Z,91.35
2019-05-18T02:30:17.456Z,91.59
2019-05-18T02:31:15.402Z,91.28
2019-05-18T02:32:15.388Z,92.20
2019-05-18T02:33:15.384Z,92.10
2019-05-18T02:34:15.368Z,91.69
2019-05-18T02:35:15.381Z,91.69
2019-05-18T02:36:15.346Z,91.89
2019-05-18T02:37:15.335Z,91.69
2019-05-18T02:38:15.334Z,92.10
2019-05-18T02:39:15.314Z,91.44
2019-05-18T02:40:15.331Z,91.39
2019-05-18T02:41:15.291Z,91.96
2019-05-18T02:42:15.281Z,91.49
2019-05-18T02:43:15.292Z,91.39
2019-05-18T02:44:15.267Z,91.39
2019-05-18T02:45:15.275Z,91.69
2019-05-18T02:46:15.237Z,92.20
2019-05-18T02:47:15.225Z,91.39
2019-05-18T02:48:15.218Z,92.20
2019-05-18T02:49:15.205Z,92.50
2019-05-18T02:50:15.223Z,92.35
2019-05-18T02:51:15.185Z,92.55
2019-05-18T02:52:15.172Z,92.00
2019-05-18T02:53:15.162Z,92.61
2019-05-18T02:54:15.151Z,92.65
2019-05-18T02:55:15.164Z,92.41
2019-05-18T02:56:15.131Z,92.65
2019-05-18T02:57:15.118Z,92.35
2019-05-18T02:58:15.109Z,92.61
2019-05-18T02:59:15.099Z,92.86
2019-05-18T03:00:15.119Z,92.76
2019-05-18T03:01:15.079Z,92.86
2019-05-18T03:02:15.073Z,92.96
2019-05-18T03:03:15.053Z,93.57
2019-05-18T03:04:15.045Z,93.47
2019-05-18T03:05:15.055Z,93.77
2019-05-18T03:06:15.031Z,93.57
2019-05-18T03:07:15.011Z,93.57
2019-05-18T03:08:14.998Z,93.37
2019-05-18T03:09:15.000Z,93.67
2019-05-18T03:10:15.002Z,93.57
2019-05-18T03:11:14.967Z,93.62
2019-05-18T03:12:14.956Z,93.47
2019-05-18T03:13:14.942Z,93.47
2019-05-18T03:14:14.930Z,93.51
2019-05-18T03:15:14.947Z,93.82
2019-05-18T03:16:14.910Z,93.62
2019-05-18T03:17:14.898Z,93.41
2019-05-18T03:18:14.888Z,93.62
2019-05-18T03:19:14.875Z,93.88
2019-05-18T03:20:14.894Z,93.51
2019-05-18T03:21:14.855Z,93.57
2019-05-18T03:22:14.848Z,93.67
2019-05-18T03:23:14.837Z,93.51
2019-05-18T03:24:14.821Z,93.92
2019-05-18T03:25:14.846Z,93.92
2019-05-18T03:26:14.797Z,94.23
2019-05-18T03:27:14.789Z,94.02
2019-05-18T03:28:14.778Z,94.02
2019-05-18T03:29:14.766Z,94.02
2019-05-18T03:30:14.788Z,94.29
2019-05-18T03:31:14.745Z,94.08
2019-05-18T03:32:14.743Z,94.08
2019-05-18T03:33:14.723Z,93.88
2019-05-18T03:34:14.711Z,93.57
2019-05-18T03:35:14.724Z,93.57
2019-05-18T03:36:14.712Z,93.47
2019-05-18T03:37:14.684Z,93.77
2019-05-18T03:38:14.665Z,93.98
2019-05-18T03:39:14.655Z,93.67
2019-05-18T03:40:14.671Z,93.67
2019-05-18T03:41:14.634Z,93.57
2019-05-18T03:42:14.624Z,93.77
2019-05-18T03:43:14.610Z,93.77
2019-05-18T03:44:14.599Z,93.88
2019-05-18T03:45:14.613Z,93.88
2019-05-18T03:46:14.577Z,93.77
2019-05-18T03:47:14.607Z,93.88
2019-05-18T03:48:14.555Z,93.84
2019-05-18T03:49:26.309Z,93.88
2019-05-18T03:50:15.558Z,93.77
2019-05-18T03:51:14.522Z,93.88
2019-05-18T03:52:14.516Z,93.88
2019-05-18T03:53:18.031Z,93.88
2019-05-18T03:54:14.489Z,93.88
2019-05-18T03:55:14.504Z,93.88
2019-05-18T03:56:14.466Z,93.67
2019-05-18T03:57:14.455Z,93.77
2019-05-18T03:58:14.445Z,93.88
2019-05-18T03:59:14.433Z,93.73
2019-05-18T04:00:14.446Z,93.67
2019-05-18T04:01:14.411Z,93.88
2019-05-18T04:02:14.406Z,93.67
2019-05-18T04:03:14.408Z,93.73
2019-05-18T04:04:18.295Z,93.37
2019-05-18T04:05:14.392Z,93.57
2019-05-18T04:06:14.355Z,93.47
2019-05-18T04:07:14.352Z,93.26
2019-05-18T04:08:14.337Z,93.57
2019-05-18T04:09:14.324Z,93.43
2019-05-18T04:10:14.339Z,93.32
2019-05-18T04:11:14.301Z,93.43
2019-05-18T04:12:14.290Z,93.52
2019-05-18T04:13:14.280Z,93.88
2019-05-18T04:14:14.271Z,93.84
2019-05-18T04:15:14.281Z,93.43
2019-05-18T04:16:14.247Z,93.43
2019-05-18T04:17:14.235Z,93.43
2019-05-18T04:18:14.229Z,93.47
2019-05-18T04:19:14.211Z,93.63
2019-05-18T04:20:14.226Z,93.43
2019-05-18T04:21:14.191Z,93.73
2019-05-18T04:22:14.178Z,93.52
2019-05-18T04:23:14.170Z,93.73
2019-05-18T04:24:14.161Z,93.84
2019-05-18T04:25:14.175Z,93.84
2019-05-18T04:26:14.138Z,93.43
2019-05-18T04:27:14.127Z,93.52
2019-05-18T04:28:14.116Z,93.47
2019-05-18T04:29:14.105Z,93.43
2019-05-18T04:30:14.120Z,93.73
2019-05-18T04:31:14.084Z,93.84
2019-05-18T04:32:14.074Z,93.52
2019-05-18T04:33:14.061Z,93.32
2019-05-18T04:34:14.055Z,93.63
2019-05-18T04:35:14.062Z,93.43
2019-05-18T04:36:14.027Z,93.52
2019-05-18T04:37:14.020Z,93.84
2019-05-18T04:38:14.012Z,93.84
2019-05-18T04:39:13.997Z,93.22
2019-05-18T04:40:14.008Z,93.84
2019-05-18T04:41:13.976Z,93.73
2019-05-18T04:42:13.963Z,93.84
2019-05-18T04:43:13.952Z,93.22
2019-05-18T04:44:13.939Z,93.73
2019-05-18T04:45:13.956Z,93.43
2019-05-18T04:46:13.923Z,93.63
2019-05-18T04:47:13.907Z,93.84
2019-05-18T04:48:13.897Z,93.59
2019-05-18T04:49:13.890Z,93.59
2019-05-18T04:50:13.898Z,93.52
2019-05-18T04:51:13.868Z,93.52
2019-05-18T04:52:13.853Z,93.18
2019-05-18T04:53:13.841Z,92.97
2019-05-18T04:54:13.833Z,92.57
2019-05-18T04:55:13.849Z,92.57
2019-05-18T04:56:13.831Z,92.87
2019-05-18T04:57:13.796Z,92.36
2019-05-18T04:58:13.786Z,92.67
2019-05-18T04:59:13.775Z,92.46
2019-05-18T05:00:13.789Z,92.32
2019-05-18T05:01:13.754Z,92.05
2019-05-18T05:02:13.762Z,92.46
2019-05-18T05:03:13.731Z,92.67
2019-05-18T05:04:13.720Z,92.36
2019-05-18T05:05:13.749Z,92.36
2019-05-18T05:06:13.700Z,92.01
2019-05-18T05:07:13.693Z,91.91
2019-05-18T05:08:13.698Z,91.71
2019-05-18T05:09:13.665Z,91.61
2019-05-18T05:10:13.680Z,91.71
2019-05-18T05:11:13.642Z,91.50
2019-05-18T05:12:13.633Z,91.81
2019-05-18T05:13:13.621Z,92.07
2019-05-18T05:14:13.619Z,91.09
2019-05-18T05:15:13.623Z,91.36
2019-05-18T05:16:13.587Z,91.56
2019-05-18T05:17:13.579Z,91.56
2019-05-18T05:18:13.564Z,90.75
2019-05-18T05:19:13.557Z,91.01
2019-05-18T05:20:19.945Z,89.99
2019-05-18T05:21:14.531Z,89.79
2019-05-18T05:22:13.523Z,90.20
2019-05-18T05:23:13.516Z,90.56
2019-05-18T05:24:13.502Z,89.38
2019-05-18T05:25:13.525Z,89.89
2019-05-18T05:26:13.480Z,89.79
2019-05-18T05:27:13.499Z,89.75
2019-05-18T05:28:13.460Z,89.34
2019-05-18T05:29:13.448Z,89.44
2019-05-18T05:30:13.467Z,88.93
2019-05-18T05:31:13.435Z,88.83
2019-05-18T05:32:13.418Z,88.22
2019-05-18T05:33:13.404Z,87.98
2019-05-18T05:34:13.399Z,88.48
2019-05-18T05:35:13.409Z,87.06
2019-05-18T05:36:13.371Z,87.26
2019-05-18T05:37:13.362Z,87.37
2019-05-18T05:38:13.351Z,86.45
2019-05-18T05:39:13.339Z,86.51
2019-05-18T05:40:13.357Z,86.41
2019-05-18T05:41:16.664Z,86.10
2019-05-18T05:42:13.306Z,86.21
2019-05-18T05:43:13.297Z,86.27
2019-05-18T05:44:13.283Z,85.70
2019-05-18T05:45:13.326Z,86.07
2019-05-18T05:46:13.266Z,85.96
2019-05-18T05:47:13.252Z,85.76
2019-05-18T05:48:13.240Z,85.66
2019-05-18T05:49:13.229Z,85.46
2019-05-18T05:50:13.244Z,85.15
2019-05-18T05:51:13.205Z,84.64
2019-05-18T05:52:13.194Z,84.23
2019-05-18T05:53:13.181Z,83.99
2019-05-18T05:54:13.171Z,83.99
2019-05-18T05:55:13.190Z,84.20
2019-05-18T05:56:13.149Z,83.48
2019-05-18T05:57:13.140Z,83.48
2019-05-18T05:58:13.130Z,83.48
2019-05-18T05:59:13.122Z,83.54
2019-05-18T06:00:13.133Z,83.45
2019-05-18T06:01:13.159Z,83.65
2019-05-18T06:02:13.084Z,83.34
2019-05-18T06:03:13.074Z,82.73
2019-05-18T06:04:13.065Z,83.24
2019-05-18T06:05:13.076Z,82.80
2019-05-18T06:06:13.041Z,82.50
2019-05-18T06:07:13.028Z,81.99
2019-05-18T06:08:13.020Z,80.66
2019-05-18T06:09:13.008Z,80.26
2019-05-18T06:10:13.022Z,80.06
2019-05-18T06:11:12.990Z,79.72
2019-05-18T06:12:12.975Z,80.02
2019-05-18T06:13:12.963Z,80.02
2019-05-18T06:14:12.952Z,79.00
2019-05-18T06:15:12.965Z,79.00
2019-05-18T06:16:12.931Z,78.66
2019-05-18T06:17:12.920Z,78.26
2019-05-18T06:18:12.911Z,77.65
2019-05-18T06:19:12.897Z,77.65
2019-05-18T06:20:12.921Z,77.34
2019-05-18T06:21:12.923Z,77.11
2019-05-18T06:22:12.864Z,77.21
2019-05-18T06:23:12.862Z,77.11
2019-05-18T06:24:12.842Z,75.89
2019-05-18T06:25:13.089Z,76.09
2019-05-18T06:26:12.824Z,75.79
2019-05-18T06:27:12.809Z,74.24
2019-05-18T06:28:12.798Z,74.07
2019-05-18T06:29:12.786Z,73.22
2019-05-18T06:30:12.801Z,73.43
2019-05-18T06:31:12.769Z,73.22
2019-05-18T06:32:12.756Z,73.22
2019-05-18T06:33:12.742Z,72.78
2019-05-18T06:34:12.733Z,72.28
2019-05-18T06:35:12.746Z,71.91
2019-05-18T06:36:12.714Z,72.08
2019-05-18T06:37:12.708Z,71.37
2019-05-18T06:38:12.689Z,71.77
2019-05-18T06:39:12.678Z,71.47
2019-05-18T06:40:12.696Z,70.96
2019-05-18T06:41:12.660Z,70.96
2019-05-18T06:42:12.645Z,70.73
2019-05-18T06:43:12.634Z,69.51
2019-05-18T06:44:12.624Z,69.41
2019-05-18T06:45:12.639Z,69.07
2019-05-18T06:46:12.602Z,68.77
2019-05-18T06:47:12.590Z,68.57
2019-05-18T06:48:12.583Z,68.87
2019-05-18T06:49:12.619Z,68.37
2019-05-18T06:50:13.335Z,68.77
2019-05-18T06:51:12.548Z,68.87
2019-05-18T06:52:12.537Z,68.63
2019-05-18T06:53:12.524Z,68.13
2019-05-18T06:54:12.515Z,67.32
2019-05-18T06:55:12.529Z,67.43
2019-05-18T06:56:12.500Z,67.43
2019-05-18T06:57:12.488Z,67.83
2019-05-18T06:58:12.470Z,67.22
2019-05-18T06:59:12.460Z,67.02
2019-05-18T07:00:12.474Z,67.02
2019-05-18T07:01:12.438Z,66.52
2019-05-18T07:02:12.434Z,66.92
2019-05-18T07:03:12.417Z,67.22
2019-05-18T07:04:12.403Z,66.61
2019-05-18T07:05:12.417Z,66.92
2019-05-18T07:06:12.381Z,67.43
2019-05-18T07:07:12.370Z,66.99
2019-05-18T07:08:12.359Z,66.58
2019-05-18T07:09:14.230Z,66.38
2019-05-18T07:10:12.360Z,66.69
2019-05-18T07:11:12.325Z,66.15
2019-05-18T07:12:12.315Z,66.58
2019-05-18T07:13:12.306Z,66.38
2019-05-18T07:14:24.914Z,66.15
2019-05-18T07:15:13.333Z,65.64
2019-05-18T07:16:12.271Z,66.05
2019-05-18T07:17:12.272Z,65.84
2019-05-18T07:18:12.248Z,65.84
2019-05-18T07:19:12.239Z,65.54
2019-05-18T07:20:12.250Z,65.95
2019-05-18T07:21:22.030Z,65.44
2019-05-18T07:22:13.204Z,65.84
2019-05-18T07:23:12.234Z,65.24
2019-05-18T07:24:12.188Z,65.54
2019-05-18T07:25:12.221Z,65.51
2019-05-18T07:26:12.165Z,64.50
2019-05-18T07:27:12.150Z,64.40
2019-05-18T07:28:12.161Z,64.00
2019-05-18T07:29:12.142Z,63.87
2019-05-18T07:30:12.144Z,63.96
2019-05-18T07:31:12.108Z,63.67
2019-05-18T07:32:12.105Z,64.58
2019-05-18T07:33:12.085Z,64.17
2019-05-18T07:34:12.075Z,63.56
2019-05-18T07:35:12.093Z,63.46
2019-05-18T07:36:12.052Z,63.87
2019-05-18T07:37:12.042Z,63.36
2019-05-18T07:38:12.036Z,63.76
2019-05-18T07:39:12.022Z,63.76
2019-05-18T07:40:12.033Z,63.67
2019-05-18T07:41:11.998Z,63.56
2019-05-18T07:42:11.986Z,63.26
2019-05-18T07:43:11.980Z,63.67
2019-05-18T07:44:11.964Z,63.53
2019-05-18T07:45:11.979Z,62.52
2019-05-18T07:46:11.943Z,62.73
2019-05-18T07:47:11.932Z,62.52
2019-05-18T07:48:11.924Z,62.70
2019-05-18T07:49:11.909Z,62.43
2019-05-18T07:50:11.923Z,62.19
2019-05-18T07:51:11.887Z,62.09
2019-05-18T07:52:11.877Z,62.29
2019-05-18T07:53:11.868Z,62.29
2019-05-18T07:54:11.874Z,62.29
2019-05-18T07:55:11.866Z,62.37
2019-05-18T07:56:11.831Z,61.96
2019-05-18T07:57:11.824Z,61.46
2019-05-18T07:58:11.816Z,61.25
2019-05-18T07:59:11.800Z,62.04
2019-05-18T08:00:11.824Z,61.56
2019-05-18T08:01:11.802Z,61.83
2019-05-18T08:02:11.768Z,61.63
2019-05-18T08:03:11.761Z,61.03
2019-05-18T08:04:11.746Z,61.43
2019-05-18T08:05:11.762Z,60.83
2019-05-18T08:06:11.727Z,61.43
2019-05-18T08:07:11.716Z,60.52
2019-05-18T08:08:11.710Z,60.12
2019-05-18T08:09:11.693Z,59.48
2019-05-18T08:10:11.706Z,59.59
2019-05-18T08:11:11.672Z,59.59
2019-05-18T08:12:11.661Z,59.19
2019-05-18T08:13:11.647Z,59.69
2019-05-18T08:14:11.640Z,58.28
2019-05-18T08:15:11.654Z,58.75
2019-05-18T08:16:11.615Z,58.35
2019-05-18T08:17:11.606Z,58.65
2019-05-18T08:18:11.596Z,58.55
2019-05-18T08:19:11.583Z,57.85
2019-05-18T08:20:11.600Z,58.25
2019-05-18T08:21:11.560Z,58.05
2019-05-18T08:22:11.550Z,58.62
2019-05-18T08:23:11.541Z,59.13
2019-05-18T08:24:11.551Z,58.25
2019-05-18T08:25:11.544Z,57.22
2019-05-18T08:26:11.505Z,57.04
2019-05-18T08:27:11.495Z,58.12
2019-05-18T08:28:11.483Z,58.20
2019-05-18T08:29:11.527Z,57.90
2019-05-18T08:30:11.539Z,57.22
2019-05-18T08:31:11.452Z,57.19
2019-05-18T08:32:11.439Z,57.19
2019-05-18T08:33:11.438Z,57.59
2019-05-18T08:34:11.414Z,57.70
2019-05-18T08:35:11.440Z,57.19
2019-05-18T08:36:11.395Z,56.76
2019-05-18T08:37:11.383Z,56.86
2019-05-18T08:38:11.372Z,56.86
2019-05-18T08:39:11.367Z,57.87
2019-05-18T08:40:11.375Z,55.66
2019-05-18T08:41:11.340Z,56.96
2019-05-18T08:42:11.330Z,56.76
2019-05-18T08:43:11.318Z,56.66
2019-05-18T08:44:11.314Z,56.66
2019-05-18T08:45:11.321Z,56.36
2019-05-18T08:46:11.295Z,56.13
2019-05-18T08:47:11.277Z,57.24
2019-05-18T08:48:11.265Z,56.36
2019-05-18T08:49:11.254Z,56.13
2019-05-18T08:50:11.275Z,56.34
2019-05-18T08:51:11.233Z,55.53
2019-05-18T08:52:11.223Z,56.43
2019-05-18T08:53:11.213Z,56.61
2019-05-18T08:54:11.202Z,55.51
2019-05-18T08:55:11.214Z,56.84
2019-05-18T08:56:11.180Z,56.41
2019-05-18T08:57:11.170Z,55.71
2019-05-18T08:58:11.163Z,55.40
2019-05-18T08:59:11.150Z,55.30
2019-05-18T09:00:11.161Z,55.60
2019-05-18T09:01:11.129Z,55.80
2019-05-18T09:02:11.117Z,55.38
2019-05-18T09:03:11.106Z,55.58
2019-05-18T09:04:11.095Z,55.38
2019-05-18T09:05:11.109Z,54.75
2019-05-18T09:06:11.072Z,53.75
2019-05-18T09:07:11.064Z,53.25
2019-05-18T09:08:11.054Z,52.67
2019-05-18T09:09:11.042Z,52.94
2019-05-18T09:10:11.056Z,52.64
2019-05-18T09:11:11.021Z,52.24
2019-05-18T09:12:11.008Z,52.64
2019-05-18T09:13:10.998Z,53.42
2019-05-18T09:14:10.986Z,53.22
2019-05-18T09:15:11.001Z,53.34
2019-05-18T09:16:10.975Z,51.72
2019-05-18T09:17:10.955Z,52.92
2019-05-18T09:18:10.941Z,52.22
2019-05-18T09:19:10.929Z,51.49
2019-05-18T09:20:10.945Z,51.39
2019-05-18T09:21:10.917Z,51.59
2019-05-18T09:22:22.495Z,51.19
2019-05-18T09:23:11.885Z,52.09
2019-05-18T09:24:10.885Z,51.59
2019-05-18T09:25:10.898Z,51.67
2019-05-18T09:26:10.852Z,51.27
2019-05-18T09:27:10.844Z,51.67
2019-05-18T09:28:10.838Z,51.67
2019-05-18T09:29:10.820Z,52.87
2019-05-18T09:30:10.886Z,51.87
2019-05-18T09:31:10.797Z,51.67
2019-05-18T09:32:10.794Z,51.57
2019-05-18T09:33:10.779Z,51.46
2019-05-18T09:34:10.768Z,51.46
2019-05-18T09:35:10.784Z,50.46
2019-05-18T09:36:10.747Z,51.17
2019-05-18T09:37:10.733Z,52.27
2019-05-18T09:38:10.723Z,51.97
2019-05-18T09:39:10.711Z,51.87
2019-05-18T09:40:10.727Z,51.46
2019-05-18T09:41:10.698Z,52.64
2019-05-18T09:42:10.680Z,52.04
2019-05-18T09:43:10.669Z,50.74
2019-05-18T09:44:10.656Z,50.74
2019-05-18T09:45:10.671Z,50.14
2019-05-18T09:46:10.637Z,50.34
2019-05-18T09:47:10.627Z,50.84
2019-05-18T09:48:10.617Z,49.91
2019-05-18T09:49:10.605Z,50.02
2019-05-18T09:50:10.617Z,50.12
2019-05-18T09:51:10.583Z,50.42
2019-05-18T09:52:10.578Z,49.91
2019-05-18T09:53:10.560Z,49.41
2019-05-18T09:54:10.550Z,49.62
2019-05-18T09:55:10.564Z,48.69
2019-05-18T09:56:10.538Z,49.41
2019-05-18T09:57:10.518Z,48.69
2019-05-18T09:58:10.520Z,47.69
2019-05-18T09:59:10.497Z,48.49
2019-05-18T10:00:10.525Z,48.17
2019-05-18T10:01:10.478Z,48.27
2019-05-18T10:02:10.466Z,48.47
2019-05-18T10:03:10.496Z,47.55
2019-05-18T10:04:10.445Z,48.05
2019-05-18T10:05:10.460Z,47.15
2019-05-18T10:06:10.425Z,47.35
2019-05-18T10:07:10.411Z,46.85
2019-05-18T10:08:10.407Z,46.75
2019-05-18T10:09:10.393Z,47.35
2019-05-18T10:10:10.429Z,47.42
2019-05-18T10:11:10.368Z,46.33
2019-05-18T10:12:10.358Z,46.80
2019-05-18T10:13:10.347Z,45.81
2019-05-18T10:14:10.335Z,44.91
2019-05-18T10:15:10.363Z,44.61
2019-05-18T10:16:10.315Z,44.21
2019-05-18T10:17:10.304Z,45.81
2019-05-18T10:18:10.291Z,44.11
2019-05-18T10:19:10.280Z,44.31
2019-05-18T10:20:10.295Z,44.83
2019-05-18T10:21:10.298Z,44.71
2019-05-18T10:22:10.248Z,44.41
2019-05-18T10:23:13.677Z,44.11
2019-05-18T10:24:10.226Z,44.71
2019-05-18T10:25:10.249Z,44.51
2019-05-18T10:26:10.207Z,43.71
2019-05-18T10:27:10.192Z,44.11
2019-05-18T10:28:10.182Z,44.49
2019-05-18T10:29:10.171Z,43.79
2019-05-18T10:30:10.185Z,42.19
2019-05-18T10:31:10.150Z,42.21
2019-05-18T10:32:10.138Z,42.40
2019-05-18T10:33:10.127Z,42.71
2019-05-18T10:34:10.117Z,41.80
2019-05-18T10:35:10.130Z,42.40
2019-05-18T10:36:11.746Z,41.09
2019-05-18T10:37:10.083Z,41.80
2019-05-18T10:38:10.073Z,41.39
2019-05-18T10:39:10.066Z,41.99
2019-05-18T10:40:10.082Z,41.19
2019-05-18T10:41:10.042Z,40.40
2019-05-18T10:42:10.032Z,41.99
2019-05-18T10:43:10.072Z,42.10
2019-05-18T10:44:10.013Z,41.89
2019-05-18T10:45:10.080Z,41.50
2019-05-18T10:46:09.987Z,41.77
2019-05-18T10:47:09.978Z,41.58
2019-05-18T10:48:09.979Z,42.18
2019-05-18T10:49:09.956Z,41.88
2019-05-18T10:50:09.995Z,42.07
2019-05-18T10:51:09.937Z,41.85
2019-05-18T10:52:09.927Z,41.88
2019-05-18T10:53:09.914Z,42.07
2019-05-18T10:54:09.903Z,41.66
2019-05-18T10:55:09.921Z,41.96
2019-05-18T10:56:09.882Z,41.28
2019-05-18T10:57:09.872Z,41.38
2019-05-18T10:58:09.861Z,41.55
2019-05-18T10:59:09.850Z,41.33
2019-05-18T11:00:09.892Z,41.66
2019-05-18T11:01:09.829Z,41.74
2019-05-18T11:02:09.818Z,41.44
2019-05-18T11:03:09.809Z,41.83
2019-05-18T11:04:09.799Z,40.02
2019-05-18T11:05:09.810Z,40.44
2019-05-18T11:06:09.774Z,40.34
2019-05-18T11:07:09.764Z,41.06
2019-05-18T11:08:09.752Z,41.53
2019-05-18T11:09:09.745Z,41.71
2019-05-18T11:10:09.757Z,41.82
2019-05-18T11:11:09.721Z,40.40
2019-05-18T11:12:09.709Z,40.28
2019-05-18T11:13:09.699Z,40.26
2019-05-18T11:14:09.690Z,39.25
2019-05-18T11:15:09.714Z,38.92
2019-05-18T11:16:09.671Z,38.30
2019-05-18T11:17:09.656Z,37.49
2019-05-18T11:18:09.644Z,37.96
2019-05-18T11:19:09.635Z,36.96
2019-05-18T11:20:09.652Z,37.15
2019-05-18T11:21:09.623Z,36.54
2019-05-18T11:22:09.606Z,36.94
2019-05-18T11:23:09.592Z,37.32
2019-05-18T11:24:09.581Z,35.73
2019-05-18T11:25:11.158Z,35.61
2019-05-18T11:26:09.571Z,35.50
2019-05-18T11:27:09.549Z,34.30
2019-05-18T11:28:09.540Z,34.44
2019-05-18T11:29:09.527Z,32.70
2019-05-18T11:30:09.740Z,33.61
2019-05-18T11:31:09.506Z,33.23
2019-05-18T11:32:09.497Z,33.29
2019-05-18T11:33:09.487Z,33.87
2019-05-18T11:34:09.473Z,33.67
2019-05-18T11:35:09.488Z,32.67
2019-05-18T11:36:09.458Z,32.85
2019-05-18T11:37:09.443Z,33.18
2019-05-18T11:38:09.435Z,32.95
2019-05-18T11:39:09.431Z,32.93
2019-05-18T11:40:09.477Z,32.54
2019-05-18T11:41:09.399Z,31.83
2019-05-18T11:42:09.390Z,32.26
2019-05-18T11:43:09.384Z,32.78
2019-05-18T11:44:10.937Z,32.68
2019-05-18T11:45:09.386Z,32.52
2019-05-18T11:46:09.357Z,33.79
2019-05-18T11:47:09.338Z,32.78
2019-05-18T11:48:09.328Z,32.78
2019-05-18T11:49:09.316Z,33.67
2019-05-18T11:50:09.354Z,32.54
2019-05-18T11:51:09.297Z,33.28
2019-05-18T11:52:09.287Z,32.68
2019-05-18T11:53:09.343Z,32.67
2019-05-18T11:54:09.270Z,32.59
2019-05-18T11:55:09.279Z,32.77
2019-05-18T11:56:09.246Z,31.96
2019-05-18T11:57:09.239Z,31.75
2019-05-18T11:58:09.222Z,32.98
2019-05-18T11:59:09.211Z,31.48
2019-05-18T12:00:09.224Z,33.72
2019-05-18T12:01:09.191Z,33.36
2019-05-18T12:02:09.180Z,32.32
2019-05-18T12:03:09.176Z,31.50
2019-05-18T12:04:09.159Z,31.48
2019-05-18T12:05:09.172Z,31.29
2019-05-18T12:06:09.137Z,31.78
2019-05-18T12:07:09.127Z,31.45
2019-05-18T12:08:09.116Z,30.94
2019-05-18T12:09:09.107Z,31.63
2019-05-18T12:10:09.166Z,31.88
2019-05-18T12:11:09.085Z,32.56
2019-05-18T12:12:09.080Z,31.04
2019-05-18T12:13:09.064Z,30.83
2019-05-18T12:14:09.072Z,31.04
2019-05-18T12:15:09.069Z,30.72
2019-05-18T12:16:09.036Z,30.11
2019-05-18T12:17:09.023Z,29.61
2019-05-18T12:18:09.018Z,29.69
2019-05-18T12:19:09.002Z,29.79
2019-05-18T12:20:09.018Z,29.48
2019-05-18T12:21:08.982Z,28.49
2019-05-18T12:22:08.973Z,28.37
2019-05-18T12:23:09.107Z,28.89
2019-05-18T12:24:15.604Z,29.57
2019-05-18T12:25:09.967Z,29.05
2019-05-18T12:26:08.932Z,28.53
2019-05-18T12:27:08.919Z,28.31
2019-05-18T12:28:08.913Z,29.77
2019-05-18T12:29:08.898Z,31.70
2019-05-18T12:30:08.915Z,30.98
2019-05-18T12:31:08.882Z,30.76
2019-05-18T12:32:08.869Z,28.68
2019-05-18T12:33:08.861Z,29.93
2019-05-18T12:34:08.849Z,31.86
2019-05-18T12:35:08.883Z,31.85
2019-05-18T12:36:08.829Z,32.04
2019-05-18T12:37:08.821Z,30.73
2019-05-18T12:38:08.809Z,31.63
2019-05-18T12:39:08.817Z,31.27
2019-05-18T12:40:09.069Z,31.59
2019-05-18T12:41:08.777Z,31.40
2019-05-18T12:42:08.766Z,31.94
2019-05-18T12:43:08.763Z,32.28
2019-05-18T12:44:08.750Z,34.59
2019-05-18T12:45:08.765Z,32.67
2019-05-18T12:46:08.726Z,31.51
2019-05-18T12:47:08.713Z,30.37
2019-05-18T12:48:08.705Z,29.25
2019-05-18T12:49:08.698Z,28.95
2019-05-18T12:50:08.712Z,28.65
2019-05-18T12:51:08.675Z,28.81
2019-05-18T12:52:08.663Z,28.00